createdAt,value
2023-02-05T00:00:06.613Z,20.30
2023-02-05T00:02:54.232Z,19.20
2023-02-05T00:05:22.188Z,19.90
2023-02-05T00:07:49.921Z,19.00
2023-02-05T00:10:17.694Z,21.70
2023-02-05T00:12:45.336Z,22.90
2023-02-05T00:15:13.013Z,22.50
2023-02-05T00:17:40.815Z,26.10
2023-02-05T00:20:09.687Z,25.30
2023-02-05T00:22:37.384Z,27.20
2023-02-05T00:25:05.677Z,42.20
2023-02-05T00:27:33.784Z,50.20
2023-02-05T00:30:01.444Z,47.30
2023-02-05T00:32:29.182Z,44.80
2023-02-05T00:34:57.360Z,33.10
2023-02-05T00:37:25.019Z,25.70
2023-02-05T00:39:52.647Z,21.90
2023-02-05T00:42:20.354Z,25.00
2023-02-05T00:44:48.781Z,26.50
2023-02-05T00:47:16.440Z,25.40
2023-02-05T00:49:44.170Z,27.10
2023-02-05T00:52:11.909Z,32.40
2023-02-05T00:54:39.665Z,37.00
2023-02-05T00:57:07.860Z,38.40
2023-02-05T00:59:35.572Z,36.10
2023-02-05T01:02:03.589Z,37.20
2023-02-05T01:04:31.700Z,30.20
2023-02-05T01:06:59.340Z,27.30
2023-02-05T01:09:27.105Z,26.70
2023-02-05T01:11:54.754Z,26.70
2023-02-05T01:14:22.432Z,26.60
2023-02-05T01:16:50.081Z,24.90
2023-02-05T01:19:17.771Z,24.30
2023-02-05T01:21:45.529Z,22.30
2023-02-05T01:24:13.356Z,21.50
2023-02-05T01:26:41.019Z,18.80
2023-02-05T01:29:09.056Z,17.70
2023-02-05T01:31:36.965Z,19.20
2023-02-05T01:34:04.627Z,19.40
2023-02-05T01:36:32.286Z,23.30
2023-02-05T01:38:59.951Z,23.70
2023-02-05T01:41:27.649Z,25.60
2023-02-05T01:44:04.987Z,23.20
2023-02-05T01:46:34.724Z,24.90
2023-02-05T01:49:03.102Z,27.10
2023-02-05T01:51:31.894Z,26.90
2023-02-05T01:53:59.874Z,27.60
2023-02-05T01:56:51.830Z,24.60
2023-02-05T01:59:22.087Z,26.30
2023-02-05T02:01:50.125Z,30.90
2023-02-05T02:04:38.469Z,30.70
2023-02-05T02:07:09.791Z,30.00
2023-02-05T02:09:38.977Z,28.10
2023-02-05T02:12:08.404Z,24.60
2023-02-05T02:14:37.257Z,26.40
2023-02-05T02:17:06.322Z,27.30
2023-02-05T02:19:42.589Z,28.10
2023-02-05T02:22:29.556Z,30.50
2023-02-05T02:25:23.525Z,32.10
2023-02-05T02:27:57.473Z,31.30
2023-02-05T02:30:35.974Z,30.60
2023-02-05T02:33:21.116Z,29.00
2023-02-05T02:35:56.486Z,28.60
2023-02-05T02:38:33.153Z,30.90
2023-02-05T02:41:09.998Z,27.70
2023-02-05T02:43:53.544Z,27.40
2023-02-05T02:46:42.599Z,27.40
2023-02-05T02:49:19.285Z,26.00
2023-02-05T02:51:48.602Z,29.30
2023-02-05T02:54:18.664Z,29.50
2023-02-05T02:56:47.416Z,29.10
2023-02-05T02:59:19.466Z,29.50
2023-02-05T03:01:54.087Z,29.70
2023-02-05T03:04:44.471Z,29.00
2023-02-05T03:07:21.124Z,30.00
2023-02-05T03:09:56.982Z,28.90
2023-02-05T03:12:24.716Z,27.60
2023-02-05T03:14:52.949Z,27.00
2023-02-05T03:17:21.598Z,27.10
2023-02-05T03:20:02.437Z,28.30
2023-02-05T03:22:30.142Z,26.50
2023-02-05T03:24:57.891Z,26.10
2023-02-05T03:27:25.881Z,25.50
2023-02-05T03:29:54.405Z,24.80
2023-02-05T03:32:53.629Z,25.20
2023-02-05T03:35:39.296Z,24.20
2023-02-05T03:38:10.827Z,23.00
2023-02-05T03:41:07.320Z,22.40
2023-02-05T03:43:56.933Z,27.40
2023-02-05T03:47:03.639Z,26.70
2023-02-05T03:49:34.271Z,28.40
2023-02-05T03:52:07.255Z,27.40
2023-02-05T03:54:55.845Z,26.20
2023-02-05T03:57:54.826Z,23.10
2023-02-05T04:00:25.126Z,20.70
2023-02-05T04:02:53.465Z,21.20
2023-02-05T04:05:23.545Z,21.10
2023-02-05T04:07:53.459Z,22.90
2023-02-05T04:10:22.942Z,23.00
2023-02-05T04:12:51.434Z,22.20
2023-02-05T04:15:19.724Z,21.60
2023-02-05T04:17:49.826Z,21.00
2023-02-05T04:20:17.757Z,20.10
2023-02-05T04:22:45.404Z,20.10
2023-02-05T04:25:13.063Z,20.50
2023-02-05T04:27:41.192Z,19.30
2023-02-05T04:30:09.909Z,19.80
2023-02-05T04:32:39.669Z,19.20
2023-02-05T04:35:07.526Z,19.00
2023-02-05T04:37:35.236Z,18.40
2023-02-05T04:40:03.174Z,18.60
2023-02-05T04:42:30.849Z,18.40
2023-02-05T04:44:58.586Z,17.80
2023-02-05T04:47:26.214Z,16.90
2023-02-05T04:49:53.855Z,17.50
2023-02-05T04:52:21.521Z,17.00
2023-02-05T04:54:49.168Z,17.70
2023-02-05T04:57:16.813Z,16.30
2023-02-05T04:59:44.481Z,14.70
2023-02-05T05:02:13.015Z,14.50
2023-02-05T05:04:43.045Z,16.50
2023-02-05T05:07:10.862Z,16.50
2023-02-05T05:09:38.577Z,14.50
2023-02-05T05:12:06.425Z,15.00
2023-02-05T05:14:34.140Z,14.00
2023-02-05T05:17:01.808Z,12.70
2023-02-05T05:19:29.460Z,13.80
2023-02-05T05:21:57.121Z,12.60
2023-02-05T05:24:24.885Z,12.50
2023-02-05T05:26:52.514Z,12.60
2023-02-05T05:29:20.173Z,13.60
2023-02-05T05:31:47.894Z,13.20
2023-02-05T05:34:15.600Z,13.70
2023-02-05T05:36:43.736Z,13.20
2023-02-05T05:39:30.477Z,12.90
2023-02-05T05:42:17.181Z,13.00
2023-02-05T05:44:44.862Z,13.20
2023-02-05T05:47:12.501Z,15.00
2023-02-05T05:49:40.193Z,14.20
2023-02-05T05:52:07.842Z,14.50
2023-02-05T05:54:35.560Z,14.40
2023-02-05T05:57:03.879Z,14.30
2023-02-05T05:59:31.516Z,17.10
2023-02-05T06:02:01.951Z,16.40
2023-02-05T06:04:30.380Z,15.40
2023-02-05T06:06:59.251Z,16.90
2023-02-05T06:09:26.874Z,15.20
2023-02-05T06:11:55.012Z,15.80
2023-02-05T06:14:22.745Z,15.70
2023-02-05T06:16:51.999Z,15.10
2023-02-05T06:19:19.681Z,14.50
2023-02-05T06:21:47.339Z,15.20
2023-02-05T06:24:14.947Z,15.10
2023-02-05T06:26:42.596Z,15.40
2023-02-05T06:29:10.235Z,15.10
2023-02-05T06:31:37.961Z,16.00
2023-02-05T06:34:05.661Z,16.60
2023-02-05T06:36:33.344Z,15.30
2023-02-05T06:39:01.028Z,15.60
2023-02-05T06:41:28.681Z,15.60
2023-02-05T06:43:56.350Z,14.90
2023-02-05T06:46:24.077Z,15.80
2023-02-05T06:48:51.871Z,16.40
2023-02-05T06:51:19.588Z,15.50
2023-02-05T06:53:47.257Z,16.80
2023-02-05T06:56:14.929Z,17.30
2023-02-05T06:58:42.585Z,16.80
2023-02-05T07:01:10.224Z,18.00
2023-02-05T07:03:37.877Z,17.20
2023-02-05T07:06:06.711Z,17.00
2023-02-05T07:08:34.830Z,17.30
2023-02-05T07:11:02.733Z,18.10
2023-02-05T07:13:30.397Z,17.70
2023-02-05T07:16:03.033Z,17.50
2023-02-05T07:18:32.689Z,17.10
2023-02-05T07:21:00.958Z,18.50
2023-02-05T07:23:28.594Z,18.70
2023-02-05T07:25:56.340Z,18.30
2023-02-05T07:28:24.069Z,17.50
2023-02-05T07:30:51.736Z,18.90
2023-02-05T07:33:19.462Z,18.60
2023-02-05T07:35:47.152Z,18.20
2023-02-05T07:38:14.810Z,18.30
2023-02-05T07:40:42.462Z,18.60
2023-02-05T07:43:10.150Z,18.10
2023-02-05T07:45:37.830Z,19.30
2023-02-05T07:48:05.628Z,19.00
2023-02-05T07:50:33.379Z,17.80
2023-02-05T07:53:01.374Z,19.00
2023-02-05T07:55:29.392Z,17.30
2023-02-05T07:57:57.102Z,17.30
2023-02-05T08:00:24.962Z,17.00
2023-02-05T08:02:52.546Z,15.70
2023-02-05T08:05:20.508Z,17.10
2023-02-05T08:07:48.443Z,17.50
2023-02-05T08:10:16.338Z,15.70
2023-02-05T08:12:44.449Z,16.10
2023-02-05T08:15:12.066Z,17.70
2023-02-05T08:17:40.164Z,17.60
2023-02-05T08:20:08.529Z,19.30
2023-02-05T08:22:38.752Z,19.20
2023-02-05T08:25:08.362Z,18.90
2023-02-05T08:27:37.721Z,16.70
2023-02-05T08:30:08.132Z,16.10
2023-02-05T08:32:37.004Z,16.70
2023-02-05T08:35:05.257Z,16.50
2023-02-05T08:37:33.138Z,15.90
2023-02-05T08:40:00.867Z,14.70
2023-02-05T08:42:28.602Z,14.00
2023-02-05T08:44:58.544Z,13.90
2023-02-05T08:47:26.913Z,14.40
2023-02-05T08:49:54.741Z,12.80
2023-02-05T08:52:22.479Z,14.30
2023-02-05T08:54:50.235Z,13.90
2023-02-05T08:57:18.341Z,13.40
2023-02-05T08:59:46.072Z,13.00
2023-02-05T09:02:16.886Z,12.40
2023-02-05T09:04:44.597Z,13.30
2023-02-05T09:07:12.277Z,13.30
2023-02-05T09:09:39.999Z,13.50
2023-02-05T09:12:07.855Z,13.40
2023-02-05T09:14:38.164Z,13.00
2023-02-05T09:17:07.835Z,13.00
2023-02-05T09:19:37.901Z,12.00
2023-02-05T09:22:06.309Z,11.60
2023-02-05T09:24:34.540Z,11.90
2023-02-05T09:27:02.228Z,10.20
2023-02-05T09:29:30.393Z,11.90
2023-02-05T09:31:58.804Z,11.30
2023-02-05T09:34:26.686Z,11.10
2023-02-05T09:36:54.340Z,10.60
2023-02-05T09:40:01.970Z,11.50
2023-02-05T09:42:35.646Z,11.50
2023-02-05T09:45:24.988Z,10.50
2023-02-05T09:48:15.535Z,11.30
2023-02-05T09:50:43.684Z,11.70
2023-02-05T09:53:14.276Z,11.30
2023-02-05T09:55:47.051Z,11.20
2023-02-05T09:58:21.616Z,11.20
2023-02-05T10:00:53.217Z,10.90
2023-02-05T10:03:32.076Z,11.30
2023-02-05T10:06:30.588Z,10.90
2023-02-05T10:09:07.150Z,10.90
2023-02-05T10:11:46.641Z,10.70
2023-02-05T10:14:39.334Z,11.00
2023-02-05T10:17:21.556Z,10.50
2023-02-05T10:20:44.898Z,11.50
2023-02-05T10:23:18.458Z,11.10
2023-02-05T10:26:05.097Z,10.80
2023-02-05T10:28:54.054Z,11.40
2023-02-05T10:31:43.920Z,10.80
2023-02-05T10:34:25.397Z,10.60
2023-02-05T10:36:53.857Z,10.80
2023-02-05T10:39:25.288Z,10.20
2023-02-05T10:42:24.848Z,11.40
2023-02-05T10:45:02.052Z,10.80
2023-02-05T10:47:29.974Z,11.20
2023-02-05T10:50:01.540Z,11.20
2023-02-05T10:52:29.333Z,11.70
2023-02-05T10:54:57.006Z,12.30
2023-02-05T10:57:25.598Z,12.20
2023-02-05T10:59:59.284Z,11.80
2023-02-05T11:02:33.341Z,11.60
2023-02-05T11:05:03.560Z,12.40
2023-02-05T11:07:39.655Z,12.80
2023-02-05T11:10:15.081Z,9.30
2023-02-05T11:12:48.903Z,9.00
2023-02-05T11:15:26.632Z,8.40
2023-02-05T11:18:03.689Z,9.70
2023-02-05T11:20:38.946Z,9.50
2023-02-05T11:23:18.600Z,9.10
2023-02-05T11:26:00.605Z,8.90
2023-02-05T11:28:33.232Z,11.30
2023-02-05T11:31:28.749Z,10.80
2023-02-05T11:34:08.864Z,10.70
2023-02-05T11:36:39.034Z,9.20
2023-02-05T11:39:07.281Z,9.40
2023-02-05T11:41:48.606Z,8.20
2023-02-05T11:44:23.945Z,9.40
2023-02-05T11:46:57.598Z,8.00
2023-02-05T11:49:32.841Z,7.50
2023-02-05T11:52:05.001Z,6.90
2023-02-05T11:54:33.936Z,7.50
2023-02-05T11:57:05.313Z,7.60
2023-02-05T11:59:34.162Z,6.20
2023-02-05T12:02:25.472Z,6.20
2023-02-05T12:04:58.964Z,5.50
2023-02-05T12:07:29.813Z,6.30
2023-02-05T12:09:59.768Z,4.80
2023-02-05T12:12:51.840Z,5.30
2023-02-05T12:15:40.555Z,5.90
2023-02-05T12:18:50.404Z,5.10
2023-02-05T12:21:30.192Z,4.20
2023-02-05T12:24:16.589Z,6.80
2023-02-05T12:26:45.675Z,23.30
2023-02-05T12:29:51.597Z,3.70
2023-02-05T12:32:31.568Z,3.90
2023-02-05T12:35:17.912Z,3.80
2023-02-05T12:38:06.449Z,4.00
2023-02-05T12:40:54.493Z,4.90
2023-02-05T12:43:30.239Z,5.30
2023-02-05T12:45:57.928Z,5.50
2023-02-05T12:48:40.788Z,4.90
2023-02-05T12:51:42.158Z,6.10
2023-02-05T12:54:42.602Z,5.20
2023-02-05T12:57:13.534Z,4.80
2023-02-05T12:59:43.886Z,6.20
2023-02-05T13:02:19.930Z,6.10
2023-02-05T13:05:10.882Z,6.00
2023-02-05T13:07:45.709Z,6.70
2023-02-05T13:10:21.350Z,5.80
2023-02-05T13:12:53.246Z,6.00
2023-02-05T13:15:24.206Z,6.20
2023-02-05T13:17:58.820Z,6.30
2023-02-05T13:21:16.627Z,5.40
2023-02-05T13:24:04.082Z,6.10
2023-02-05T13:27:01.413Z,6.00
2023-02-05T13:29:32.182Z,6.90
2023-02-05T13:32:15.591Z,5.90
2023-02-05T13:34:43.927Z,5.20
2023-02-05T13:37:31.822Z,5.60
2023-02-05T13:40:21.189Z,6.30
2023-02-05T13:43:18.088Z,6.30
2023-02-05T13:46:04.963Z,6.30
2023-02-05T13:49:32.469Z,7.40
2023-02-05T13:52:26.938Z,6.20
2023-02-05T13:55:01.457Z,6.40
2023-02-05T13:57:57.447Z,7.10
2023-02-05T14:00:25.903Z,7.60
2023-02-05T14:02:55.796Z,6.60
2023-02-05T14:05:40.800Z,8.30
2023-02-05T14:08:21.720Z,10.10
2023-02-05T14:11:00.812Z,9.20
2023-02-05T14:13:34.370Z,8.20
2023-02-05T14:16:23.877Z,7.20
2023-02-05T14:19:00.215Z,7.00
2023-02-05T14:21:30.826Z,7.50
2023-02-05T14:24:18.366Z,7.90
2023-02-05T14:26:53.580Z,9.40
2023-02-05T14:29:43.665Z,8.20
2023-02-05T14:32:13.252Z,10.40
2023-02-05T14:34:40.870Z,8.40
2023-02-05T14:37:31.119Z,9.40
2023-02-05T14:39:59.585Z,9.30
2023-02-05T14:42:29.516Z,12.30
2023-02-05T14:44:57.850Z,13.60
2023-02-05T14:47:28.847Z,14.90
2023-02-05T14:50:11.390Z,13.10
2023-02-05T14:52:53.203Z,11.50
2023-02-05T14:55:26.669Z,11.00
2023-02-05T14:57:56.937Z,10.90
2023-02-05T15:00:34.605Z,12.80
2023-02-05T15:03:05.022Z,14.00
2023-02-05T15:05:42.076Z,12.80
2023-02-05T15:08:34.498Z,12.50
2023-02-05T15:11:43.665Z,12.00
2023-02-05T15:14:20.988Z,14.90
2023-02-05T15:17:10.768Z,15.80
2023-02-05T15:20:22.050Z,15.30
2023-02-05T15:22:53.850Z,15.20
2023-02-05T15:25:21.446Z,15.20
2023-02-05T15:27:55.716Z,14.80
2023-02-05T15:30:26.242Z,16.40
2023-02-05T15:33:03.842Z,15.50
2023-02-05T15:35:33.408Z,16.10
2023-02-05T15:38:35.424Z,17.80
2023-02-05T15:41:06.771Z,17.70
2023-02-05T15:43:34.438Z,23.40
2023-02-05T15:46:07.127Z,24.30
2023-02-05T15:48:36.805Z,23.40
2023-02-05T15:51:17.720Z,23.30
2023-02-05T15:53:50.252Z,22.90
2023-02-05T15:56:20.806Z,23.80
2023-02-05T15:58:58.852Z,20.90
2023-02-05T16:01:29.979Z,22.60
2023-02-05T16:03:57.913Z,22.10
2023-02-05T16:06:27.471Z,30.30
2023-02-05T16:08:55.763Z,36.10
2023-02-05T16:11:34.725Z,32.40
2023-02-05T16:14:10.541Z,30.50
2023-02-05T16:16:41.714Z,22.20
2023-02-05T16:19:17.281Z,22.40
2023-02-05T16:21:55.643Z,25.40
2023-02-05T16:24:29.535Z,28.10
2023-02-05T16:27:04.771Z,27.70
2023-02-05T16:29:48.026Z,33.60
2023-02-05T16:32:23.680Z,35.30
2023-02-05T16:34:51.386Z,30.70
2023-02-05T16:37:19.452Z,54.80
2023-02-05T16:39:55.098Z,71.00
2023-02-05T16:42:25.572Z,67.80
2023-02-05T16:45:08.316Z,62.60
2023-02-05T16:47:37.020Z,62.20
2023-02-05T16:50:43.698Z,51.20
2023-02-05T16:53:26.367Z,67.60
2023-02-05T16:56:01.906Z,51.20
2023-02-05T16:58:37.757Z,58.50
2023-02-05T17:01:05.590Z,55.00
2023-02-05T17:03:39.534Z,49.80
2023-02-05T17:06:14.805Z,50.50
2023-02-05T17:08:45.371Z,48.30
2023-02-05T17:11:33.260Z,56.00
2023-02-05T17:14:25.999Z,45.10
2023-02-05T17:16:59.654Z,45.20
2023-02-05T17:19:30.960Z,46.60
2023-02-05T17:22:13.758Z,44.70
2023-02-05T17:24:43.570Z,41.00
2023-02-05T17:27:18.512Z,41.40
2023-02-05T17:29:46.258Z,37.30
2023-02-05T17:32:18.865Z,36.10
2023-02-05T17:34:46.965Z,33.10
2023-02-05T17:37:15.268Z,34.10
2023-02-05T17:39:42.995Z,33.10
2023-02-05T17:42:36.936Z,34.00
2023-02-05T17:45:18.688Z,34.60
2023-02-05T17:47:46.641Z,37.20
2023-02-05T17:50:14.820Z,35.30
2023-02-05T17:52:44.025Z,35.70
2023-02-05T17:55:17.182Z,34.80
2023-02-05T17:57:45.748Z,33.90
2023-02-05T18:00:19.904Z,34.50
2023-02-05T18:02:47.580Z,36.20
2023-02-05T18:05:15.727Z,35.00
2023-02-05T18:07:50.027Z,34.70
2023-02-05T18:10:23.283Z,33.60
2023-02-05T18:12:51.718Z,33.70
2023-02-05T18:15:19.796Z,37.70
2023-02-05T18:17:47.533Z,36.60
2023-02-05T18:20:16.174Z,37.00
2023-02-05T18:22:43.934Z,39.70
2023-02-05T18:25:11.577Z,36.70
2023-02-05T18:27:39.396Z,34.60
2023-02-05T18:30:07.933Z,39.10
2023-02-05T18:32:35.737Z,42.30
2023-02-05T18:35:04.114Z,42.10
2023-02-05T18:37:31.745Z,42.60
2023-02-05T18:39:59.414Z,39.80
2023-02-05T18:42:27.333Z,45.30
2023-02-05T18:44:54.981Z,38.10
2023-02-05T18:47:22.636Z,33.60
2023-02-05T18:49:50.281Z,36.90
2023-02-05T18:52:18.520Z,35.40
2023-02-05T18:54:46.351Z,37.20
2023-02-05T18:57:14.012Z,40.80
2023-02-05T18:59:41.777Z,39.70
2023-02-05T19:02:13.081Z,45.60
2023-02-05T19:04:41.739Z,39.90
2023-02-05T19:07:09.518Z,40.40
2023-02-05T19:09:37.285Z,48.60
2023-02-05T19:12:05.115Z,53.90
2023-02-05T19:14:32.874Z,63.70
2023-02-05T19:17:00.535Z,82.50
2023-02-05T19:19:29.506Z,45.10
2023-02-05T19:22:02.100Z,63.20
2023-02-05T19:24:29.989Z,54.00
2023-02-05T19:26:59.199Z,72.20
2023-02-05T19:29:27.123Z,68.60
2023-02-05T19:31:55.068Z,45.30
2023-02-05T19:34:23.555Z,42.00
2023-02-05T19:36:51.626Z,40.30
2023-02-05T19:39:19.427Z,41.60
2023-02-05T19:41:48.420Z,39.90
2023-02-05T19:44:16.421Z,38.50
2023-02-05T19:46:44.271Z,43.40
2023-02-05T19:49:15.472Z,44.20
2023-02-05T19:51:47.851Z,48.90
2023-02-05T19:54:16.022Z,46.90
2023-02-05T19:56:44.582Z,45.60
2023-02-05T19:59:12.712Z,41.60
2023-02-05T20:01:43.606Z,44.30
2023-02-05T20:04:17.623Z,45.30
2023-02-05T20:06:47.032Z,76.40
2023-02-05T20:09:16.144Z,77.60
2023-02-05T20:11:49.214Z,36.30
2023-02-05T20:14:17.528Z,35.10
2023-02-05T20:16:45.918Z,36.60
2023-02-05T20:19:15.670Z,39.00
2023-02-05T20:21:43.872Z,39.60
2023-02-05T20:24:12.060Z,39.80
2023-02-05T20:26:40.116Z,40.00
2023-02-05T20:29:26.750Z,39.70
2023-02-05T20:31:54.961Z,39.90
2023-02-05T20:34:25.989Z,40.10
2023-02-05T20:36:59.684Z,39.00
2023-02-05T20:39:29.148Z,38.50
2023-02-05T20:41:58.525Z,41.00
2023-02-05T20:44:27.758Z,43.60
2023-02-05T20:46:55.971Z,42.60
2023-02-05T20:49:23.883Z,44.10
2023-02-05T20:51:53.044Z,44.50
2023-02-05T20:54:22.201Z,43.60
2023-02-05T20:56:51.227Z,41.80
2023-02-05T20:59:19.496Z,44.80
2023-02-05T21:01:47.496Z,41.10
2023-02-05T21:04:15.238Z,39.90
2023-02-05T21:06:43.211Z,39.30
2023-02-05T21:09:10.947Z,37.40
2023-02-05T21:11:39.434Z,36.10
2023-02-05T21:14:08.232Z,36.10
2023-02-05T21:16:37.173Z,32.90
2023-02-05T21:19:06.765Z,32.70
2023-02-05T21:21:36.216Z,31.70
2023-02-05T21:24:07.604Z,30.90
2023-02-05T21:26:37.795Z,32.70
2023-02-05T21:29:13.835Z,31.30
2023-02-05T21:31:45.037Z,31.80
2023-02-05T21:34:15.703Z,33.50
2023-02-05T21:36:43.861Z,33.40
2023-02-05T21:39:12.282Z,34.20
2023-02-05T21:41:39.947Z,35.50
2023-02-05T21:44:07.638Z,35.80
2023-02-05T21:46:35.340Z,45.80
2023-02-05T21:49:04.039Z,43.60
2023-02-05T21:51:34.600Z,37.80
2023-02-05T21:54:04.967Z,41.90
2023-02-05T21:56:38.320Z,41.90
2023-02-05T21:59:06.489Z,41.20
2023-02-05T22:01:36.163Z,45.50
2023-02-05T22:04:08.629Z,49.80
2023-02-05T22:06:36.788Z,56.00
2023-02-05T22:09:06.686Z,58.00
2023-02-05T22:11:34.962Z,58.40
2023-02-05T22:14:02.652Z,51.00
2023-02-05T22:16:32.507Z,46.40
2023-02-05T22:19:01.482Z,42.20
2023-02-05T22:21:31.824Z,45.50
2023-02-05T22:24:01.307Z,51.50
2023-02-05T22:26:31.881Z,51.70
2023-02-05T22:29:00.792Z,50.20
2023-02-05T22:31:32.716Z,54.30
2023-02-05T22:34:00.876Z,44.30
2023-02-05T22:36:30.811Z,40.30
2023-02-05T22:38:59.002Z,47.50
2023-02-05T22:41:27.808Z,45.00
2023-02-05T22:43:57.644Z,45.00
2023-02-05T22:46:27.786Z,51.40
2023-02-05T22:48:56.236Z,46.70
2023-02-05T22:51:26.641Z,52.60
2023-02-05T22:53:54.928Z,45.70
2023-02-05T22:56:23.210Z,49.70
2023-02-05T22:58:52.389Z,51.30
2023-02-05T23:01:22.758Z,45.40
2023-02-05T23:03:52.027Z,53.20
2023-02-05T23:06:22.745Z,55.10
2023-02-05T23:08:56.558Z,54.50
2023-02-05T23:11:25.326Z,50.30
2023-02-05T23:13:53.013Z,48.40
2023-02-05T23:16:26.801Z,42.40
2023-02-05T23:19:00.580Z,43.00
2023-02-05T23:21:29.974Z,53.00
2023-02-05T23:23:57.675Z,59.50
2023-02-05T23:26:27.631Z,53.30
2023-02-05T23:28:56.671Z,59.60
2023-02-05T23:31:25.398Z,62.60
2023-02-05T23:33:53.926Z,59.00
2023-02-05T23:36:21.844Z,54.60
2023-02-05T23:38:49.528Z,66.10
2023-02-05T23:41:35.820Z,60.00
2023-02-05T23:44:14.830Z,72.20
2023-02-05T23:46:43.706Z,65.90
2023-02-05T23:49:12.269Z,60.90
2023-02-05T23:51:40.728Z,70.20
2023-02-05T23:54:10.311Z,62.10
2023-02-05T23:56:38.224Z,72.50
2023-02-05T23:59:07.309Z,63.00
